KVTN/VTN METAR and TAF weather

Enter ICAO airport designator
Station Type Date Time Source
KVTN METAR 2022/06/27 16:52 UTC NOAA

KVTN 271652Z AUTO 20015G23KT 10SM CLR 26/06 A3028 RMK AO2 SLP240 T02610061


Station Type Date Time Source
KVTN Decoded METAR 2022/06/27 16:52 UTC NOAA

MILLER FIELD - VALENTINE, NE, NE, United States (KVTN) 42-52N 100-33W 788M
Jun 27, 2022 - 12:52 PM EDT / 2022.06.27 1652 UTC
Wind: from the SSW (200 degrees) at 17 MPH (15 KT) gusting to 26 MPH (23 KT):0
Visibility: 10 mile(s):0
Sky conditions: clear
Temperature: 79.0 F (26.1 C)
Dew Point: 43.0 F (6.1 C)
Relative Humidity: 27%
Pressure (altimeter): 30.28 in. Hg (1025 hPa)
ob: KVTN 271652Z AUTO 20015G23KT 10SM CLR 26/06 A3028 RMK AO2 SLP240 T02610061
cycle: 17

Station Type Date Time Source
KVTN TAF 2022/06/27 18:38 UTC NOAA

TAF KVTN 271738Z 2718/2818 20015G24KT P6SM SCT080
FM280100 18014KT P6SM FEW250
FM280800 23007KT P6SM FEW250
FM281100 28005KT P6SM FEW250
FM281300 33007KT P6SM SCT250
FM281700 04008KT P6SM SCT250

Example: see airport list